Time;durP1;ratioP1;P1;durP2;ratioP2;P2;SDS_P1;SDS_P2;PMS_P1;PMS_P2;Temp;Humidity;BMP_temperature;BMP_pressure;BME280_temperature;BME280_humidity;BME280_pressure;Samples;Min_cycle;Max_cycle;Signal;HPM_P1;HPM_P2
2023/10/30 00:02:19;;;;;;;;;1.00;1.00;;;;;13.12;85.43;99331.16;5090257;27;45524;-84
2023/10/30 00:04:44;;;;;;;;;1.00;1.00;;;;;13.37;85.20;99380.66;5091302;27;49557;-82
2023/10/30 00:07:10;;;;;;;;;2.00;2.00;;;;;13.16;85.13;99340.63;5087574;28;45308;-83
2023/10/30 00:09:35;;;;;;;;;2.33;1.33;;;;;13.08;85.57;99343.09;5083639;28;45657;-83
2023/10/30 00:12:01;;;;;;;;;2.33;2.00;;;;;13.15;85.80;99358.47;5081858;27;45598;-86
2023/10/30 00:14:26;;;;;;;;;2.67;2.00;;;;;13.21;85.42;99381.13;5080132;27;45440;-83
2023/10/30 00:16:52;;;;;;;;;2.00;2.00;;;;;13.16;86.42;99372.66;5079610;27;44914;-82
2023/10/30 00:19:17;;;;;;;;;4.67;1.00;;;;;13.05;86.82;99380.72;5079529;27;45226;-84
2023/10/30 00:21:43;;;;;;;;;1.00;1.00;;;;;12.83;86.34;99339.84;5078989;27;45385;-84
2023/10/30 00:24:08;;;;;;;;;7.00;1.00;;;;;12.62;86.28;99304.31;5078181;27;45360;-83
2023/10/30 00:26:37;;;;;;;;;3.33;1.33;;;;;13.06;86.15;99371.75;5078372;27;45361;-87
2023/10/30 00:29:03;;;;;;;;;4.00;1.00;;;;;13.11;86.64;99375.69;5079031;27;45407;-83
2023/10/30 00:31:29;;;;;;;;;3.67;2.00;;;;;13.12;86.47;99389.91;5078972;27;46667;-83
2023/10/30 00:33:55;;;;;;;;;1.33;1.33;;;;;12.64;86.18;99313.06;5078329;28;45388;-83
2023/10/30 00:36:21;;;;;;;;;3.00;1.00;;;;;12.90;86.02;99349.03;5081803;27;45392;-82
2023/10/30 00:38:47;;;;;;;;;3.33;2.00;;;;;12.75;86.23;99323.66;5085946;28;45259;-83
2023/10/30 00:41:12;;;;;;;;;3.33;1.00;;;;;13.00;85.83;99363.28;5083543;27;46772;-81
2023/10/30 00:43:38;;;;;;;;;2.00;1.00;;;;;12.81;85.97;99323.13;5083072;27;60730;-83
2023/10/30 00:46:04;;;;;;;;;1.67;1.67;;;;;12.85;86.02;99335.22;5084552;27;45330;-83
2023/10/30 00:48:29;;;;;;;;;2.67;1.00;;;;;12.96;85.94;99359.19;5078722;28;45611;-85
2023/10/30 00:50:55;;;;;;;;;2.00;0.00;;;;;12.52;86.12;99303.44;5078827;28;47365;-83
2023/10/30 00:53:21;;;;;;;;;2.33;2.00;;;;;12.43;85.79;99285.53;5076699;28;45145;-83
2023/10/30 00:55:50;;;;;;;;;2.00;1.00;;;;;12.83;86.18;99347.03;5081847;27;45482;-85
2023/10/30 00:58:16;;;;;;;;;3.00;1.67;;;;;12.43;86.71;99288.22;5083053;27;45347;-83
2023/10/30 01:00:41;;;;;;;;;4.00;1.00;;;;;12.39;86.23;99288.47;5081027;28;47107;-87
2023/10/30 01:03:07;;;;;;;;;3.33;2.00;;;;;12.89;86.48;99362.50;5082958;28;61772;-84
2023/10/30 01:05:32;;;;;;;;;6.33;0.33;;;;;12.67;86.59;99326.97;5081490;28;55769;-83
2023/10/30 01:07:57;;;;;;;;;1.00;1.00;;;;;12.83;86.57;99361.19;5084410;28;47406;-82
2023/10/30 01:10:23;;;;;;;;;6.00;0.33;;;;;12.78;86.45;99352.75;5085563;27;45587;-82
2023/10/30 01:12:48;;;;;;;;;2.67;1.33;;;;;12.93;86.91;99377.28;5082010;27;45354;-81
2023/10/30 01:15:15;;;;;;;;;1.00;1.00;;;;;12.91;86.45;99379.25;5080645;28;45317;-83
2023/10/30 01:17:40;;;;;;;;;1.00;1.00;;;;;12.55;86.88;99321.84;5081392;28;45267;-83
2023/10/30 01:20:07;;;;;;;;;2.67;1.33;;;;;12.63;86.93;99314.00;5081696;27;45343;-85
2023/10/30 01:22:34;;;;;;;;;2.00;2.00;;;;;12.89;86.49;99366.03;5087004;27;45367;-83
2023/10/30 01:24:59;;;;;;;;;2.00;2.00;;;;;12.79;86.53;99342.94;5085120;28;45332;-87
2023/10/30 01:27:25;;;;;;;;;4.00;1.00;;;;;12.86;86.64;99354.75;5086782;27;49647;-84
2023/10/30 01:29:50;;;;;;;;;3.00;2.00;;;;;12.46;86.58;99293.28;5086350;28;47844;-84
2023/10/30 01:32:15;;;;;;;;;2.00;1.00;;;;;12.56;86.87;99311.03;5086280;27;44813;-83
2023/10/30 01:34:44;;;;;;;;;0.00;0.00;;;;;12.67;87.07;99329.66;5087587;28;55650;-83
2023/10/30 01:37:09;;;;;;;;;3.67;1.00;;;;;12.72;87.09;99339.91;5089082;27;45330;-81
2023/10/30 01:39:36;;;;;;;;;2.00;1.00;;;;;12.57;87.26;99318.06;5088889;27;45496;-82
2023/10/30 01:42:02;;;;;;;;;1.67;1.67;;;;;12.54;87.87;99328.16;5087636;27;45307;-84
2023/10/30 01:44:28;;;;;;;;;2.00;0.00;;;;;12.38;87.98;99309.94;5088010;27;45348;-83
2023/10/30 01:46:54;;;;;;;;;4.00;2.00;;;;;12.60;87.71;99351.63;5084502;27;45325;-85
2023/10/30 01:49:21;;;;;;;;;0.67;0.67;;;;;12.57;88.23;99343.88;5081775;27;47286;-82
2023/10/30 01:51:47;;;;;;;;;2.33;2.00;;;;;12.21;88.46;99290.00;5082354;27;45826;-82
2023/10/30 01:54:13;;;;;;;;;1.33;0.00;;;;;12.46;88.13;99352.78;5081402;28;45370;-83
2023/10/30 01:56:40;;;;;;;;;3.00;1.67;;;;;12.43;89.22;99334.38;5081552;27;45334;-82
2023/10/30 01:59:07;;;;;;;;;2.00;1.00;;;;;11.95;89.17;99262.84;5081614;27;45616;-84
2023/10/30 02:01:35;;;;;;;;;2.33;1.00;;;;;12.14;89.14;99295.97;5081472;27;45297;-81
2023/10/30 02:04:01;;;;;;;;;0.33;0.33;;;;;12.13;89.34;99291.63;5079179;27;45577;-84
2023/10/30 02:06:26;;;;;;;;;1.00;1.00;;;;;12.31;89.42;99325.59;5079619;27;45259;-82
2023/10/30 02:08:51;;;;;;;;;2.67;0.00;;;;;12.03;89.27;99275.53;5079390;27;45380;-81
2023/10/30 02:11:16;;;;;;;;;1.00;1.00;;;;;12.29;89.73;99337.34;5079531;28;45295;-81
2023/10/30 02:13:53;;;;;;;;;2.00;1.33;;;;;12.05;89.65;99290.44;5080067;27;45238;-81
2023/10/30 02:16:19;;;;;;;;;4.00;0.67;;;;;11.96;89.90;99290.34;5079325;28;45426;-81
2023/10/30 02:18:45;;;;;;;;;1.00;1.00;;;;;12.17;89.96;99320.56;5080486;27;45474;-80
2023/10/30 02:21:11;;;;;;;;;2.67;1.33;;;;;12.10;89.90;99316.69;5077321;27;62914;-81
2023/10/30 02:23:37;;;;;;;;;0.00;0.00;;;;;12.09;89.90;99312.34;5080176;28;45569;-82
2023/10/30 02:26:04;;;;;;;;;4.67;2.00;;;;;12.16;90.12;99328.69;5079750;27;45420;-84
2023/10/30 02:28:29;;;;;;;;;2.00;1.00;;;;;12.15;89.84;99327.00;5079317;27;45722;-82
2023/10/30 02:30:54;;;;;;;;;2.00;1.00;;;;;12.09;89.85;99317.66;5079100;28;54983;-82
2023/10/30 02:33:20;;;;;;;;;0.67;0.67;;;;;12.09;90.36;99307.00;5079534;27;45317;-83
2023/10/30 02:35:45;;;;;;;;;5.33;1.00;;;;;12.02;90.00;99312.00;5078848;28;45379;-82
2023/10/30 02:38:11;;;;;;;;;1.00;1.00;;;;;12.08;90.64;99326.63;5081377;27;45577;-81
2023/10/30 02:40:36;;;;;;;;;2.33;2.00;;;;;11.95;90.41;99301.97;5080379;27;45267;-83
2023/10/30 02:43:02;;;;;;;;;1.67;1.33;;;;;12.02;90.40;99311.16;5080379;27;45408;-82
2023/10/30 02:45:28;;;;;;;;;1.00;1.00;;;;;12.00;90.27;99302.44;5079769;27;46800;-84
2023/10/30 02:47:53;;;;;;;;;1.67;1.67;;;;;12.06;89.83;99316.09;5079362;27;45519;-82
2023/10/30 02:50:18;;;;;;;;;2.00;1.00;;;;;12.05;90.33;99305.56;5078228;28;54657;-83
2023/10/30 02:52:44;;;;;;;;;3.00;1.00;;;;;11.90;89.96;99283.72;5079223;27;45251;-84
2023/10/30 02:55:09;;;;;;;;;1.33;1.33;;;;;11.93;90.21;99285.28;5079526;28;45283;-84
2023/10/30 02:57:36;;;;;;;;;3.67;1.00;;;;;11.93;90.37;99291.44;5079548;27;46099;-81
2023/10/30 03:00:02;;;;;;;;;4.33;1.67;;;;;12.01;90.53;99298.81;5095523;27;45266;-82
2023/10/30 03:02:28;;;;;;;;;2.00;2.00;;;;;11.69;89.95;99246.31;5079502;27;45334;-81
2023/10/30 03:04:54;;;;;;;;;3.67;2.33;;;;;11.88;90.22;99288.31;5078159;27;45552;-83
2023/10/30 03:07:19;;;;;;;;;3.33;1.00;;;;;11.96;90.55;99293.00;5079553;27;45468;-81
2023/10/30 03:09:46;;;;;;;;;3.00;1.00;;;;;11.77;90.28;99264.34;5082331;27;45375;-81
2023/10/30 03:12:11;;;;;;;;;1.67;1.00;;;;;11.81;90.49;99287.97;5083372;27;45334;-82
2023/10/30 03:14:36;;;;;;;;;2.00;1.00;;;;;11.93;90.44;99285.28;5081734;27;45335;-82
2023/10/30 03:17:02;;;;;;;;;2.00;1.00;;;;;11.75;90.73;99258.31;5081053;27;45424;-82
2023/10/30 03:19:27;;;;;;;;;4.67;1.00;;;;;11.64;90.11;99229.03;5080218;27;45366;-81
2023/10/30 03:21:53;;;;;;;;;1.67;1.33;;;;;11.88;89.74;99271.50;5079204;28;53708;-82
2023/10/30 03:24:18;;;;;;;;;3.00;1.00;;;;;11.89;90.28;99265.19;5080397;27;45626;-80
2023/10/30 03:26:43;;;;;;;;;2.67;1.00;;;;;11.92;90.49;99265.78;5079022;27;57895;-83
2023/10/30 03:29:09;;;;;;;;;1.00;1.00;;;;;11.65;89.91;99228.91;5079471;27;45208;-83
2023/10/30 03:31:35;;;;;;;;;2.67;1.33;;;;;11.74;90.12;99253.94;5077264;28;52978;-82
2023/10/30 03:34:01;;;;;;;;;2.67;1.00;;;;;11.90;90.17;99250.91;5079726;27;45243;-82
2023/10/30 03:36:26;;;;;;;;;2.00;2.00;;;;;11.90;90.12;99254.41;5079985;27;45307;-83
2023/10/30 03:38:51;;;;;;;;;3.33;2.00;;;;;11.80;90.34;99243.66;5085472;27;45165;-82
2023/10/30 03:41:20;;;;;;;;;2.00;2.00;;;;;11.82;90.16;99230.19;5094306;27;45351;-80
2023/10/30 03:43:49;;;;;;;;;2.67;1.00;;;;;11.94;90.15;99244.31;5085053;28;45454;-80
2023/10/30 03:46:14;;;;;;;;;5.00;1.00;;;;;11.97;90.07;99255.56;5099500;27;47281;-82
2023/10/30 03:48:39;;;;;;;;;3.00;3.00;;;;;11.52;89.77;99185.63;5082675;27;45230;-80
2023/10/30 03:51:05;;;;;;;;;4.67;2.00;;;;;11.74;89.84;99209.53;5079265;27;45436;-82
2023/10/30 03:53:31;;;;;;;;;2.67;2.67;;;;;11.86;89.70;99242.31;5079504;27;45401;-82
2023/10/30 03:55:56;;;;;;;;;4.00;1.67;;;;;11.98;90.10;99267.94;5079038;27;45400;-80
2023/10/30 03:58:22;;;;;;;;;2.00;2.00;;;;;11.88;90.04;99235.03;5078812;27;45334;-81
2023/10/30 04:00:47;;;;;;;;;3.00;2.00;;;;;12.00;89.60;99249.16;5079224;27;45317;-81
2023/10/30 04:03:13;;;;;;;;;2.67;1.00;;;;;12.05;89.70;99258.44;5095172;27;45355;-80
2023/10/30 04:05:38;;;;;;;;;2.67;1.00;;;;;12.09;89.61;99259.03;5079693;28;45335;-81
2023/10/30 04:08:04;;;;;;;;;3.00;1.33;;;;;12.09;89.33;99254.56;5081818;27;45270;-81
2023/10/30 04:10:30;;;;;;;;;2.67;2.00;;;;;12.01;89.40;99240.19;5082270;27;45427;-81
2023/10/30 04:12:56;;;;;;;;;0.00;0.00;;;;;11.95;89.35;99232.69;5080328;28;45417;-81
2023/10/30 04:15:21;;;;;;;;;2.00;1.00;;;;;12.02;89.14;99225.91;5079707;27;45420;-83
2023/10/30 04:17:47;;;;;;;;;1.67;1.67;;;;;12.03;88.92;99227.59;5078453;27;45381;-82
2023/10/30 04:20:12;;;;;;;;;4.00;1.00;;;;;12.06;88.81;99211.34;5078501;27;45388;-81
2023/10/30 04:22:38;;;;;;;;;1.67;1.67;;;;;11.70;88.81;99162.78;5078215;27;45408;-83
2023/10/30 04:25:06;;;;;;;;;2.00;2.00;;;;;11.93;88.41;99200.84;5078033;28;45281;-82
2023/10/30 04:27:31;;;;;;;;;2.67;1.00;;;;;11.97;88.15;99218.25;5093922;27;45425;-82
2023/10/30 04:29:57;;;;;;;;;2.00;2.00;;;;;12.17;88.66;99243.25;5076886;28;45429;-81
2023/10/30 04:32:22;;;;;;;;;2.00;2.00;;;;;12.04;88.37;99239.94;5078439;27;45235;-81
2023/10/30 04:34:47;;;;;;;;;2.00;2.00;;;;;11.77;88.06;99206.59;5076100;28;64994;-81
2023/10/30 04:37:13;;;;;;;;;4.67;2.67;;;;;12.13;88.39;99260.50;5078545;27;50405;-83
2023/10/30 04:39:38;;;;;;;;;3.00;3.00;;;;;11.82;88.19;99212.41;5079233;27;45305;-82
2023/10/30 04:42:04;;;;;;;;;3.00;3.00;;;;;12.06;88.41;99248.63;5078149;27;45362;-82
2023/10/30 04:44:29;;;;;;;;;3.00;2.00;;;;;12.14;87.81;99256.84;5077194;27;45295;-81
2023/10/30 04:46:56;;;;;;;;;2.33;1.00;;;;;11.90;88.06;99226.91;5077375;27;45414;-82
2023/10/30 04:49:21;;;;;;;;;6.00;3.00;;;;;12.09;88.14;99264.38;5077302;27;45493;-81
2023/10/30 04:51:46;;;;;;;;;3.00;3.00;;;;;11.93;88.46;99231.97;5078499;28;45708;-83
2023/10/30 04:54:12;;;;;;;;;3.67;2.00;;;;;11.98;88.65;99257.28;5084647;27;45543;-87
2023/10/30 04:56:40;;;;;;;;;2.33;2.00;;;;;12.04;88.39;99266.56;5085056;27;45448;-84
2023/10/30 04:59:07;;;;;;;;;1.67;1.67;;;;;12.01;88.46;99249.03;5086212;28;45231;-85
2023/10/30 05:01:32;;;;;;;;;5.67;2.67;;;;;11.80;89.10;99210.84;5082738;27;45264;-82
2023/10/30 05:03:57;;;;;;;;;3.67;2.00;;;;;11.86;88.77;99214.84;5080071;27;45517;-83
2023/10/30 05:06:23;;;;;;;;;4.33;3.00;;;;;11.78;89.68;99199.44;5082672;27;45409;-83
2023/10/30 05:08:48;;;;;;;;;3.00;2.00;;;;;11.89;89.92;99215.41;5085974;28;46041;-81
2023/10/30 05:11:13;;;;;;;;;3.33;2.00;;;;;11.90;90.10;99197.63;5084803;27;45540;-88
2023/10/30 05:13:40;;;;;;;;;3.00;3.00;;;;;11.91;89.77;99192.16;5086121;27;45528;-87
2023/10/30 05:16:05;;;;;;;;;8.33;4.33;;;;;12.07;90.04;99207.69;5082842;27;45365;-81
2023/10/30 05:18:31;;;;;;;;;2.67;2.67;;;;;11.93;90.11;99178.69;5080930;27;45440;-82
2023/10/30 05:20:56;;;;;;;;;3.00;2.67;;;;;11.99;89.69;99192.38;5081011;27;45529;-80
2023/10/30 05:23:22;;;;;;;;;2.00;1.00;;;;;11.84;90.06;99169.66;5080699;28;46116;-82
2023/10/30 05:25:47;;;;;;;;;4.00;4.00;;;;;12.09;90.01;99197.75;5080748;27;45274;-82
2023/10/30 05:28:12;;;;;;;;;2.00;1.00;;;;;11.74;89.93;99142.09;5079086;28;45374;-82
2023/10/30 05:30:38;;;;;;;;;1.00;1.00;;;;;12.01;90.17;99197.56;5096233;27;45240;-82
2023/10/30 05:33:05;;;;;;;;;3.33;2.33;;;;;12.09;90.46;99195.91;5095904;27;46283;-82
2023/10/30 05:35:31;;;;;;;;;2.00;2.00;;;;;12.05;90.63;99188.31;5079927;27;45415;-82
2023/10/30 05:37:56;;;;;;;;;2.00;2.00;;;;;12.06;91.31;99190.84;5078861;27;45315;-82
2023/10/30 05:40:22;;;;;;;;;5.00;1.00;;;;;11.86;90.79;99150.91;5086575;28;45506;-88
2023/10/30 05:42:48;;;;;;;;;1.33;1.33;;;;;11.82;90.75;99145.81;5086278;27;45264;-88
2023/10/30 05:45:13;;;;;;;;;2.67;2.00;;;;;12.06;91.08;99190.00;5089691;27;45408;-85
2023/10/30 05:47:38;;;;;;;;;4.00;2.67;;;;;12.04;91.38;99184.81;5088483;28;45317;-88
2023/10/30 05:50:05;;;;;;;;;3.00;2.00;;;;;11.97;91.53;99180.13;5086211;27;45246;-84
2023/10/30 05:52:30;;;;;;;;;0.33;0.33;;;;;11.94;91.51;99183.06;5082119;27;46554;-83
2023/10/30 05:54:57;;;;;;;;;2.00;2.00;;;;;12.05;91.97;99206.97;5081276;27;45321;-82
2023/10/30 05:57:22;;;;;;;;;1.00;1.00;;;;;12.05;91.97;99204.31;5082237;28;45410;-81
2023/10/30 05:59:48;;;;;;;;;1.33;1.33;;;;;11.91;92.56;99178.00;5082169;27;45552;-85
2023/10/30 06:02:15;;;;;;;;;3.00;1.67;;;;;12.06;92.48;99204.19;5081863;27;45308;-83
2023/10/30 06:04:40;;;;;;;;;4.33;1.00;;;;;12.07;92.87;99186.38;5081286;27;45359;-89
2023/10/30 06:07:05;;;;;;;;;4.00;3.00;;;;;12.02;93.10;99181.44;5083770;28;45237;-84
2023/10/30 06:09:31;;;;;;;;;3.00;2.00;;;;;11.69;93.01;99118.47;5081952;27;45569;-84
2023/10/30 06:11:56;;;;;;;;;2.00;2.00;;;;;11.55;93.31;99100.16;5081608;28;50134;-85
2023/10/30 06:14:22;;;;;;;;;3.00;3.00;;;;;12.17;92.91;99203.28;5082824;28;48252;-83
2023/10/30 06:16:48;;;;;;;;;1.00;1.00;;;;;12.03;93.68;99187.63;5085687;28;45283;-88
2023/10/30 06:19:13;;;;;;;;;2.00;2.00;;;;;11.92;94.38;99177.00;5091151;27;45666;-84
2023/10/30 06:21:39;;;;;;;;;2.00;2.00;;;;;12.01;94.26;99198.41;5084688;27;47479;-88
2023/10/30 06:24:06;;;;;;;;;4.67;2.00;;;;;11.88;94.18;99167.59;5083501;27;45416;-84
2023/10/30 06:26:32;;;;;;;;;3.00;3.00;;;;;12.08;94.75;99180.06;5082997;27;45328;-85
2023/10/30 06:28:57;;;;;;;;;1.00;1.00;;;;;12.05;95.32;99183.00;5081480;28;45357;-85
2023/10/30 06:31:22;;;;;;;;;1.33;0.00;;;;;11.93;95.52;99152.91;5081910;28;63983;-82
2023/10/30 06:33:48;;;;;;;;;1.67;1.67;;;;;11.75;95.03;99112.66;5085877;28;44761;-84
2023/10/30 06:36:14;;;;;;;;;4.67;3.00;;;;;12.15;95.03;99186.59;5090425;27;45260;-81
2023/10/30 06:38:39;;;;;;;;;1.67;1.67;;;;;11.86;95.92;99164.22;5089195;27;45533;-83
2023/10/30 06:41:05;;;;;;;;;2.00;2.00;;;;;11.76;95.62;99166.78;5083155;27;46358;-82
2023/10/30 06:43:32;;;;;;;;;5.33;3.00;;;;;12.19;96.09;99222.66;5084830;28;45298;-82
2023/10/30 06:46:04;;;;;;;;;3.00;2.00;;;;;11.75;96.20;99144.63;5085468;27;45258;-82
2023/10/30 06:48:31;;;;;;;;;1.33;1.33;;;;;12.19;96.81;99222.66;5085218;27;45129;-82
2023/10/30 06:50:57;;;;;;;;;4.00;2.00;;;;;12.08;97.21;99209.38;5085365;27;45579;-82
2023/10/30 06:53:23;;;;;;;;;2.67;2.67;;;;;12.15;97.83;99217.72;5084957;28;45191;-83
2023/10/30 06:55:49;;;;;;;;;3.00;3.00;;;;;11.77;97.74;99158.66;5085890;27;45382;-82
2023/10/30 06:58:15;;;;;;;;;2.00;2.00;;;;;12.11;97.44;99206.47;5089335;27;45251;-82
2023/10/30 07:00:43;;;;;;;;;4.00;3.00;;;;;12.17;97.75;99211.28;5088328;27;48739;-82
2023/10/30 07:03:08;;;;;;;;;3.00;3.00;;;;;12.08;97.39;99182.72;5087123;27;45347;-83
2023/10/30 07:05:33;;;;;;;;;3.00;3.00;;;;;12.24;97.61;99206.25;5088846;27;45261;-82
2023/10/30 07:07:59;;;;;;;;;5.67;3.67;;;;;12.15;97.73;99173.25;5090406;27;45179;-83
2023/10/30 07:10:24;;;;;;;;;2.00;2.00;;;;;12.28;98.19;99168.56;5092497;27;45421;-82
2023/10/30 07:12:50;;;;;;;;;7.67;6.00;;;;;12.35;98.02;99167.06;5085517;28;54158;-84
2023/10/30 07:15:15;;;;;;;;;2.67;2.67;;;;;12.32;97.52;99153.16;5088785;27;45299;-81
2023/10/30 07:17:40;;;;;;;;;2.00;2.00;;;;;12.39;96.95;99160.50;5086209;28;45128;-82
2023/10/30 07:20:06;;;;;;;;;2.67;2.67;;;;;12.20;96.69;99128.38;5083307;27;45344;-83
2023/10/30 07:22:32;;;;;;;;;2.67;2.00;;;;;12.56;96.46;99183.03;5083414;27;45333;-83
2023/10/30 07:25:00;;;;;;;;;3.00;3.00;;;;;12.55;97.09;99176.00;5082579;27;45401;-85
2023/10/30 07:27:28;;;;;;;;;4.00;4.00;;;;;12.64;96.21;99163.72;5082353;27;45715;-83
2023/10/30 07:29:54;;;;;;;;;4.00;4.00;;;;;12.63;95.68;99159.31;5080706;27;45362;-83
2023/10/30 07:32:23;;;;;;;;;4.00;4.00;;;;;12.71;95.67;99159.50;5081706;27;45275;-82
2023/10/30 07:34:48;;;;;;;;;3.67;3.67;;;;;12.69;95.15;99150.81;5080787;27;45285;-83
2023/10/30 07:37:15;;;;;;;;;6.00;5.00;;;;;12.79;95.91;99150.84;5081008;28;46481;-83
2023/10/30 07:39:40;;;;;;;;;5.00;4.67;;;;;12.86;95.25;99168.81;5082165;27;47494;-82
2023/10/30 07:42:06;;;;;;;;;5.00;3.00;;;;;12.90;95.69;99170.28;5080788;28;45357;-83
2023/10/30 07:44:32;;;;;;;;;7.00;4.67;;;;;12.75;95.61;99125.41;5083267;27;45416;-83
2023/10/30 07:46:59;;;;;;;;;4.00;4.00;;;;;12.47;95.92;99077.16;5082844;27;45325;-82
2023/10/30 07:49:24;;;;;;;;;5.00;4.00;;;;;12.96;95.35;99160.88;5081063;28;46252;-82
2023/10/30 07:51:50;;;;;;;;;7.00;4.67;;;;;12.64;95.21;99110.38;5062782;28;45252;-83
2023/10/30 07:54:16;;;;;;;;;4.67;4.67;;;;;13.00;95.71;99160.44;5079639;28;45212;-82
2023/10/30 07:56:42;;;;;;;;;4.00;4.00;;;;;12.74;95.15;99121.03;5081101;27;45585;-84
2023/10/30 07:59:08;;;;;;;;;7.67;6.00;;;;;12.96;95.38;99172.38;5082686;28;45207;-82
2023/10/30 08:01:35;;;;;;;;;10.00;7.67;;;;;12.80;95.99;99149.88;5079890;28;45402;-82
2023/10/30 08:04:01;;;;;;;;;6.67;6.33;;;;;12.96;96.51;99167.03;5080335;27;45419;-81
2023/10/30 08:06:27;;;;;;;;;10.00;8.33;;;;;13.01;96.10;99166.63;5079777;28;45483;-83
2023/10/30 08:08:52;;;;;;;;;6.00;6.00;;;;;12.94;95.75;99150.34;5077986;27;45435;-84
2023/10/30 08:11:18;;;;;;;;;7.00;7.00;;;;;12.72;96.40;99107.84;5078476;27;45322;-83
2023/10/30 08:13:43;;;;;;;;;7.00;6.33;;;;;12.92;96.72;99130.09;5078500;28;45234;-84
2023/10/30 08:16:10;;;;;;;;;8.67;6.67;;;;;13.00;96.85;99149.78;5079753;27;45517;-83
2023/10/30 08:18:37;;;;;;;;;7.00;7.00;;;;;12.99;97.11;99153.41;5079501;27;45287;-82
2023/10/30 08:21:02;;;;;;;;;6.00;6.00;;;;;12.62;96.89;99096.28;5078696;27;45471;-84
2023/10/30 08:23:28;;;;;;;;;8.67;8.67;;;;;12.53;96.93;99078.47;5077362;28;45381;-83
2023/10/30 08:25:53;;;;;;;;;7.67;7.67;;;;;12.94;97.58;99153.00;5079569;27;45342;-84
2023/10/30 08:28:19;;;;;;;;;10.67;10.67;;;;;12.88;97.53;99134.84;5085631;27;46338;-81
2023/10/30 08:30:45;;;;;;;;;10.67;8.33;;;;;12.97;97.09;99157.22;5085454;27;45395;-82
2023/10/30 08:33:10;;;;;;;;;21.00;17.67;;;;;13.02;97.12;99164.81;5085544;27;45367;-83
2023/10/30 08:35:35;;;;;;;;;12.33;12.33;;;;;13.04;97.04;99161.03;5085823;28;45572;-83
2023/10/30 08:38:03;;;;;;;;;17.00;13.67;;;;;13.08;96.56;99145.59;5084865;28;59984;-82
2023/10/30 08:40:28;;;;;;;;;11.00;8.33;;;;;12.82;96.27;99099.88;5086052;28;45338;-83
2023/10/30 08:42:54;;;;;;;;;11.67;7.67;;;;;12.80;96.91;99093.84;5068076;28;45259;-82
2023/10/30 08:45:22;;;;;;;;;10.67;10.67;;;;;13.10;96.85;99148.97;5085691;27;45338;-84
2023/10/30 08:47:47;;;;;;;;;11.00;7.00;;;;;13.10;97.13;99138.28;5084468;28;45352;-85
2023/10/30 08:50:13;;;;;;;;;11.33;8.00;;;;;12.95;96.57;99105.81;5082988;27;45393;-82
2023/10/30 08:52:39;;;;;;;;;11.00;8.33;;;;;12.91;95.78;99107.91;5084653;27;45723;-82
2023/10/30 08:55:05;;;;;;;;;12.67;10.00;;;;;12.68;96.10;99055.75;5085027;28;45575;-84
2023/10/30 08:57:30;;;;;;;;;10.00;7.00;;;;;13.19;95.87;99126.81;5085289;27;45291;-82
2023/10/30 08:59:56;;;;;;;;;10.33;10.33;;;;;13.13;96.26;99096.13;5086426;27;45382;-83
2023/10/30 09:02:21;;;;;;;;;7.00;7.00;;;;;12.78;95.07;99059.31;5085498;27;45321;-84
2023/10/30 09:04:46;;;;;;;;;6.33;5.33;;;;;13.15;94.70;99120.00;5085936;27;45507;-84
2023/10/30 09:07:12;;;;;;;;;8.00;6.33;;;;;13.24;95.04;99113.88;5085550;27;45550;-83
2023/10/30 09:09:38;;;;;;;;;15.00;9.33;;;;;12.99;95.47;99083.19;5087403;28;45452;-83
2023/10/30 09:12:04;;;;;;;;;1.33;1.00;;;;;13.32;94.26;99123.88;5089583;27;45430;-82
2023/10/30 09:14:31;;;;;;;;;2.33;2.33;;;;;13.12;93.54;99072.25;5103331;27;45643;-84
2023/10/30 09:16:57;;;;;;;;;2.00;2.00;;;;;13.27;93.80;99093.09;5085859;28;58476;-84
2023/10/30 09:19:22;;;;;;;;;2.00;2.00;;;;;13.33;93.27;99082.84;5087756;28;45429;-83
2023/10/30 09:21:48;;;;;;;;;5.33;3.00;;;;;12.96;92.63;99020.28;5086650;27;45692;-82
2023/10/30 09:24:13;;;;;;;;;5.00;3.33;;;;;13.52;92.52;99112.22;5085665;28;45732;-85
2023/10/30 09:26:38;;;;;;;;;2.00;2.00;;;;;13.51;91.68;99107.88;5086283;27;45432;-83
2023/10/30 09:29:04;;;;;;;;;2.00;2.00;;;;;13.28;92.00;99073.44;5086635;27;46386;-83
2023/10/30 09:31:31;;;;;;;;;2.67;2.67;;;;;13.50;91.28;99116.84;5087162;27;47745;-83
2023/10/30 09:33:57;;;;;;;;;5.00;4.00;;;;;13.36;91.54;99107.44;5086536;27;45501;-83
2023/10/30 09:36:23;;;;;;;;;6.00;3.67;;;;;13.34;91.83;99114.75;5084817;27;45546;-84
2023/10/30 09:38:48;;;;;;;;;2.33;1.00;;;;;13.09;92.87;99061.88;5082176;28;45339;-82
2023/10/30 09:41:18;;;;;;;;;6.00;5.00;;;;;13.45;92.37;99111.94;5083763;27;45435;-83
2023/10/30 09:43:47;;;;;;;;;6.00;6.00;;;;;13.35;92.50;99100.41;5083119;27;45152;-83
2023/10/30 09:46:14;;;;;;;;;9.67;7.67;;;;;13.44;92.61;99120.09;5082722;28;46789;-82
2023/10/30 09:48:42;;;;;;;;;7.67;7.33;;;;;13.30;92.61;99107.16;5082916;27;45453;-84
2023/10/30 09:51:08;;;;;;;;;6.67;6.67;;;;;13.26;93.76;99103.91;5082194;27;45433;-83
2023/10/30 09:53:36;;;;;;;;;8.00;6.00;;;;;13.29;93.91;99119.69;5082733;27;45728;-82
2023/10/30 09:56:03;;;;;;;;;5.67;5.67;;;;;13.31;93.61;99108.84;5097120;27;48435;-83
2023/10/30 09:58:30;;;;;;;;;8.33;6.67;;;;;12.81;93.12;99048.34;5080817;27;45472;-82
2023/10/30 10:00:57;;;;;;;;;5.00;4.67;;;;;13.20;93.65;99109.81;5081496;28;45297;-83
2023/10/30 10:03:23;;;;;;;;;5.00;5.00;;;;;12.98;94.08;99087.69;5081861;27;45495;-83
2023/10/30 10:05:55;;;;;;;;;4.00;4.00;;;;;12.91;94.70;99065.22;5080747;27;45971;-82
2023/10/30 10:08:22;;;;;;;;;7.00;5.00;;;;;13.20;94.29;99113.34;5081585;27;45350;-82
2023/10/30 10:10:59;;;;;;;;;3.00;3.00;;;;;13.19;94.59;99100.97;5082747;27;45444;-83
2023/10/30 10:13:26;;;;;;;;;1.00;1.00;;;;;13.18;93.95;99087.72;5081748;28;45454;-82
2023/10/30 10:15:52;;;;;;;;;1.00;1.00;;;;;13.14;94.35;99081.81;5084514;27;45707;-82
2023/10/30 10:18:29;;;;;;;;;4.67;3.00;;;;;12.93;94.71;99041.91;5084259;27;45421;-83
2023/10/30 10:20:59;;;;;;;;;3.67;3.67;;;;;13.13;94.86;99073.94;5082078;28;45299;-83
2023/10/30 10:23:35;;;;;;;;;4.00;4.00;;;;;13.15;94.53;99061.28;5100121;27;45389;-83
2023/10/30 10:26:15;;;;;;;;;5.00;5.00;;;;;12.97;95.66;99027.28;5085710;28;45752;-81
2023/10/30 10:28:42;;;;;;;;;6.33;6.00;;;;;12.67;95.51;98963.38;5088892;27;45321;-82
2023/10/30 10:31:07;;;;;;;;;4.33;4.33;;;;;13.27;95.37;99061.06;5087987;27;45264;-83
2023/10/30 10:33:34;;;;;;;;;5.33;5.33;;;;;13.07;95.27;99021.13;5086813;28;45519;-82
2023/10/30 10:36:02;;;;;;;;;9.00;7.00;;;;;13.37;95.16;99053.03;5093731;28;46750;-81
2023/10/30 10:38:31;;;;;;;;;8.33;7.00;;;;;13.33;94.85;99048.97;5096409;27;45352;-82
2023/10/30 10:40:57;;;;;;;;;6.00;5.33;;;;;13.44;95.31;99035.50;5098050;27;45297;-82
2023/10/30 10:43:29;;;;;;;;;7.67;7.67;;;;;13.50;95.27;99036.75;5097151;27;45305;-82
2023/10/30 10:45:56;;;;;;;;;8.33;7.00;;;;;13.36;95.13;98995.28;5095282;27;45366;-83
2023/10/30 10:48:24;;;;;;;;;8.00;8.00;;;;;13.60;95.38;99023.38;5094406;27;45348;-83
2023/10/30 10:50:50;;;;;;;;;11.67;11.33;;;;;13.57;96.16;99012.00;5084889;27;45366;-84
2023/10/30 10:53:19;;;;;;;;;10.33;8.00;;;;;13.45;95.67;98999.78;5083945;27;45423;-82
2023/10/30 10:55:47;;;;;;;;;14.67;13.00;;;;;13.48;96.19;98994.16;5081914;27;46068;-81
2023/10/30 10:58:38;;;;;;;;;16.00;13.00;;;;;13.45;97.26;98978.44;5082498;27;45187;-83
2023/10/30 11:01:05;;;;;;;;;15.00;14.00;;;;;13.30;96.89;98952.31;5083670;27;45433;-82
2023/10/30 11:03:31;;;;;;;;;13.33;12.00;;;;;13.63;96.22;98996.38;5085222;28;44915;-83
2023/10/30 11:06:02;;;;;;;;;17.67;14.00;;;;;13.56;96.71;98972.09;5082490;27;46236;-86
2023/10/30 11:08:39;;;;;;;;;11.33;9.33;;;;;13.71;96.25;98988.50;5082544;27;45376;-83
2023/10/30 11:11:28;;;;;;;;;15.00;15.00;;;;;13.64;95.75;98961.50;5100617;27;45271;-85
2023/10/30 11:14:29;;;;;;;;;14.33;14.33;;;;;13.76;96.11;98994.22;5086695;27;45499;-86
2023/10/30 11:17:00;;;;;;;;;12.00;12.00;;;;;13.78;95.96;98989.56;5095102;27;45215;-82
2023/10/30 11:19:28;;;;;;;;;12.00;12.00;;;;;13.80;95.19;98993.81;5091326;28;44833;-84
2023/10/30 11:21:54;;;;;;;;;16.00;11.67;;;;;13.82;95.34;98983.81;5088762;27;44737;-84
2023/10/30 11:24:39;;;;;;;;;12.00;10.00;;;;;13.91;94.49;98992.78;5086145;28;45220;-86
2023/10/30 11:27:26;;;;;;;;;10.00;10.00;;;;;13.91;94.18;98986.56;5104087;27;47636;-87
2023/10/30 11:29:53;;;;;;;;;13.00;9.00;;;;;13.86;94.24;98987.03;5085430;28;45426;-82